Buoy 53593

sailwx.info

Track history (hours):
 
Tides and Currents Weather Stations Pressure Air Temp Water Temp Dewpoint Dewpoint Depression Visibility Wind Speed Wind Dir Waves Ship Positions

Drifting buoy 53593

Last reported at 2017-Jan-18 15:00 UTC. Time now 2017-Jan-18 20:17 UTC.
Position S 22°21' E 105°04'.

Barometer 1015.9 mb
Water temperature 23.3 ° C

Date/timePositionNaut miles runAvg speedWind from/ knotsBaromVisibWave heightAir tempDewpointWater temp
2017-Jan-18 15:00S 22°21' E 105°04'0 0.0 1015.9 23.3
2017-Jan-18 14:00S 22°21' E 105°04'1 0.8 1015.3 23.3
2017-Jan-18 13:00S 22°22' E 105°04'0 0.0 1015.1 23.3
2017-Jan-18 12:00S 22°22' E 105°04'1 0.8 1014.8 23.3
2017-Jan-18 11:00S 22°22' E 105°04'2 0.9 1014.0 23.4
2017-Jan-18 09:00S 22°24' E 105°03'1 0.2 1013.3 23.4
2017-Jan-18 01:00S 22°25' E 105°03'1 0.6 1014.8 23.3
2017-Jan-18 00:00S 22°26' E 105°03'0 0.0 1014.1 23.3
2017-Jan-17 23:00S 22°26' E 105°03'0 0.0 1013.7 23.3
2017-Jan-17 22:00S 22°26' E 105°03'1 0.8 1013.3 23.3
2017-Jan-17 21:00S 22°26' E 105°04'1 0.3 1013.2 23.3
2017-Jan-17 19:00S 22°27' E 105°04'2 0.2 1013.3 23.3
2017-Jan-17 12:00S 22°28' E 105°05'1 0.6 1013.1 23.4
2017-Jan-17 11:00S 22°29' E 105°05'1 1.3 1012.6 23.4
2017-Jan-17 10:00S 22°30' E 105°05'0 0.0 1012.2 23.4
2017-Jan-17 09:00S 22°30' E 105°05'1 1.3 1012.0 23.4
2017-Jan-17 08:00S 22°31' E 105°06'0 0.0 1012.1 23.4
2017-Jan-17 05:00S 22°31' E 105°06'0 0.0 1013.1 23.3
2017-Jan-17 03:00S 22°31' E 105°06'2 1.9 1013.6 23.3
2017-Jan-17 02:00S 22°33' E 105°07'1 0.3 1013.6 23.3
2017-Jan-17 00:00S 22°32' E 105°07'0 0.0 1013.1 23.3
2017-Jan-16 23:00S 22°32' E 105°07'3 1.7 1012.6 23.3
2017-Jan-16 21:00S 22°34' E 105°10'0 0.0 1011.6 23.3
2017-Jan-16 20:00S 22°34' E 105°10'1 0.3 1011.7 23.4
2017-Jan-16 15:00S 22°35' E 105°10'1 0.8 1012.4 23.4
2017-Jan-16 14:00S 22°36' E 105°11'0 0.0 1012.1 23.4
2017-Jan-16 13:00S 22°36' E 105°11'0 0.0 1011.8 23.4
2017-Jan-16 12:00S 22°36' E 105°11'1 0.6 1011.5 23.4
2017-Jan-16 10:00S 22°37' E 105°11'3 1.5 1010.4 23.5
2017-Jan-16 08:00S 22°40' E 105°13'3 0.4 1010.5 23.5
2017-Jan-16 00:00S 22°39' E 105°16'1 0.6 1012.2 23.4
2017-Jan-15 23:00S 22°39' E 105°15'1 0.6 1011.8 23.4
2017-Jan-15 22:00S 22°39' E 105°16'1 1.3 1011.2 23.4
2017-Jan-15 21:00S 22°40' E 105°16'0 0.0 1010.6 23.4
2017-Jan-15 20:00S 22°40' E 105°16'2 0.3 1010.5 23.4
2017-Jan-15 14:00S 22°40' E 105°18'1 0.4 1011.5 23.5
2017-Jan-15 12:00S 22°41' E 105°19'2 1.0 1010.7 23.5
2017-Jan-15 10:00S 22°42' E 105°20'1 1.3 1009.7 23.6
2017-Jan-15 09:00S 22°43' E 105°22'2 0.7 1009.8 23.6
2017-Jan-15 06:00S 22°44' E 105°23'0 0.0 1011.0 23.6
2017-Jan-15 02:00S 22°44' E 105°23'2 1.6 1012.2 23.5
2017-Jan-15 01:00S 22°46' E 105°24'0 0.0 1012.3 23.5
2017-Jan-15 00:00S 22°46' E 105°24'1 0.6 1012.2 23.5
2017-Jan-14 22:00S 22°47' E 105°24'0 0.0 1011.5 23.6
2017-Jan-14 21:00S 22°47' E 105°24'0 0.0 1011.1 23.6
2017-Jan-14 20:00S 22°47' E 105°24'1 0.6 1011.5 23.6
2017-Jan-14 18:00S 22°47' E 105°25'0 0.0 1012.2 23.6
2017-Jan-14 17:00S 22°47' E 105°25'1 0.2 1012.6 23.6
2017-Jan-14 14:00S 22°47' E 105°26'1 0.6 1012.4 23.6
2017-Jan-14 13:00S 22°47' E 105°26'0 0.0 1012.6 23.6
2017-Jan-14 12:00S 22°47' E 105°26'1 0.8 1012.2 23.7
2017-Jan-14 11:00S 22°48' E 105°27'1 0.8 1011.6 23.7
2017-Jan-14 10:00S 22°47' E 105°26'2 1.8 1010.9 23.7
2017-Jan-14 09:00S 22°48' E 105°28'1 0.6 1010.5 23.7
2017-Jan-14 07:00S 22°49' E 105°28'3 3.4 1011.3 23.7
2017-Jan-14 06:00S 22°50' E 105°32'1 0.2 1011.9 23.7
2017-Jan-14 01:00S 22°50' E 105°32'2 2.1 1013.0 23.7
2017-Jan-14 00:00S 22°52' E 105°34'0 0.0 1013.0 23.7
2017-Jan-13 23:00S 22°52' E 105°34'2 1.8 1012.9 23.7
2017-Jan-13 22:00S 22°54' E 105°34'0 0.0 1012.1 23.7
2017-Jan-13 21:00S 22°54' E 105°34'1 0.2 1011.8 23.7
2017-Jan-13 18:00S 22°54' E 105°34'0 0.0 1012.1 23.8
2017-Jan-13 15:00S 22°54' E 105°34'1 0.3 1012.3 23.8
2017-Jan-13 11:00S 22°54' E 105°35'2 1.7 1011.1 23.8
2017-Jan-13 10:00S 22°54' E 105°37'0 0.0 1010.6 23.8
2017-Jan-13 09:00S 22°54' E 105°37'8 0.8 1010.7 23.8
2017-Jan-12 22:00S 22°56' E 105°46'1 1.3 1011.6 23.8
2017-Jan-12 21:00S 22°56' E 105°47'3 0.4 1011.4 23.8
2017-Jan-12 14:00S 22°55' E 105°50'1 0.8 1011.5 24.0
2017-Jan-12 13:00S 22°55' E 105°50'2 0.9 1011.1 24.0
2017-Jan-12 11:00S 22°54' E 105°52'1 1.2 1010.3 24.0
2017-Jan-12 10:00S 22°53' E 105°52'2 2.1 1009.8 24.0
2017-Jan-12 09:00S 22°51' E 105°53'0 0.0 1009.6 24.0
2017-Jan-12 07:00S 22°51' E 105°53'3 3.3 1010.1 24.1
2017-Jan-12 06:00S 22°49' E 105°56'1 0.3 1010.7 24.0
2017-Jan-12 02:00S 22°49' E 105°57'1 0.6 1011.3 24.0
2017-Jan-12 00:00S 22°49' E 105°58'2 1.6 1010.9 24.0
2017-Jan-11 23:00S 22°48' E 105°59'0 0.0 1010.7 24.0
2017-Jan-11 22:00S 22°48' E 105°59'2 0.6 1010.4 24.0
2017-Jan-11 18:00S 22°46' E 106°00'1 0.4 1010.7 24.1
2017-Jan-11 15:00S 22°45' E 106°01'0 0.0 1011.0 24.1
2017-Jan-11 14:00S 22°45' E 106°01'2 0.6 1010.7 24.1
2017-Jan-11 11:00S 22°43' E 106°01'2 0.9 1008.4 24.2
2017-Jan-11 09:00S 22°41' E 106°01'2 0.9 1008.0 24.3
2017-Jan-11 07:00S 22°40' E 106°01'4 0.9 1009.1 24.3
2017-Jan-11 02:00S 22°35' E 106°02'1 0.4 1010.8 24.1
2017-Jan-11 00:00S 22°35' E 106°02'3 3.0 1010.7 24.1
2017-Jan-10 23:00S 22°32' E 106°02'0 0.0 1010.1 24.1
2017-Jan-10 22:00S 22°32' E 106°02'1 0.6 1010.0 24.1
2017-Jan-10 21:00S 22°32' E 106°01'1 0.4 1010.0 24.1
2017-Jan-10 19:00S 22°31' E 106°01'0 0.0 1010.0 24.1
2017-Jan-10 18:00S 22°31' E 106°01'2 1.2 1009.9 24.1
2017-Jan-10 16:00S 22°29' E 106°01'4 1.0 1010.6 24.1
2017-Jan-10 12:00S 22°25' E 105°59'4 1.2 1009.5 24.2
2017-Jan-10 09:00S 22°22' E 105°56'0 0.0 1008.3 24.2
2017-Jan-10 08:00S 22°22' E 105°56'6 1.2 1008.7 24.2
2017-Jan-10 03:00S 22°16' E 105°56'4 1.2 1010.4 24.0
2017-Jan-10 00:00S 22°13' E 105°55'1 0.6 1010.5 24.0
2017-Jan-09 23:00S 22°13' E 105°55'3 1.5 1009.8 24.0
2017-Jan-09 21:00S 22°10' E 105°55'0 0.0 1009.0 24.0
2017-Jan-09 20:00S 22°10' E 105°55'4 0.7 1008.8 24.0
2017-Jan-09 14:00S 22°06' E 105°52'3 1.1 1010.5 24.1
2017-Jan-09 11:00S 22°04' E 105°50'9 9.3 1009.0 24.1
2017-Jan-09 10:00S 21°56' E 105°44'0 0.0 1008.3 24.1
2017-Jan-09 09:00S 21°56' E 105°44'5 0.5 1007.7 24.1
2017-Jan-08 23:00S 21°50' E 105°44'1 0.6 1009.6 23.8
2017-Jan-08 22:00S 21°50' E 105°44'3 2.6 1009.1 23.8
2017-Jan-08 21:00S 21°47' E 105°43'0 0.0 1008.5 23.8
2017-Jan-08 20:00S 21°47' E 105°43'0 0.0 1008.2 23.8
2017-Jan-08 15:00S 21°47' E 105°43'   1009.5 23.8
Track history (hours):
 
Tides and Currents Weather Stations Pressure Air Temp Water Temp Dewpoint Dewpoint Depression Visibility Wind Speed Wind Dir Waves Ship Positions

Drifting buoy 53593

Last reported at 2017-Jan-18 15:00 UTC. Time now 2017-Jan-18 20:17 UTC.
Position S 22°21' E 105°04'.

Barometer 1015.9 mb
Water temperature 23.3 ° C

Date/timePositionNaut miles runAvg speedWind from/ knotsBaromVisibWave heightAir tempDewpointWater temp
2017-Jan-18 15:00S 22°21' E 105°04'0 0.0 1015.9 23.3
2017-Jan-18 14:00S 22°21' E 105°04'1 0.8 1015.3 23.3
2017-Jan-18 13:00S 22°22' E 105°04'0 0.0 1015.1 23.3
2017-Jan-18 12:00S 22°22' E 105°04'1 0.8 1014.8 23.3
2017-Jan-18 11:00S 22°22' E 105°04'2 0.9 1014.0 23.4
2017-Jan-18 09:00S 22°24' E 105°03'1 0.2 1013.3 23.4
2017-Jan-18 01:00S 22°25' E 105°03'1 0.6 1014.8 23.3
2017-Jan-18 00:00S 22°26' E 105°03'0 0.0 1014.1 23.3
2017-Jan-17 23:00S 22°26' E 105°03'0 0.0 1013.7 23.3
2017-Jan-17 22:00S 22°26' E 105°03'1 0.8 1013.3 23.3
2017-Jan-17 21:00S 22°26' E 105°04'1 0.3 1013.2 23.3
2017-Jan-17 19:00S 22°27' E 105°04'2 0.2 1013.3 23.3
2017-Jan-17 12:00S 22°28' E 105°05'1 0.6 1013.1 23.4
2017-Jan-17 11:00S 22°29' E 105°05'1 1.3 1012.6 23.4
2017-Jan-17 10:00S 22°30' E 105°05'0 0.0 1012.2 23.4
2017-Jan-17 09:00S 22°30' E 105°05'1 1.3 1012.0 23.4
2017-Jan-17 08:00S 22°31' E 105°06'0 0.0 1012.1 23.4
2017-Jan-17 05:00S 22°31' E 105°06'0 0.0 1013.1 23.3
2017-Jan-17 03:00S 22°31' E 105°06'2 1.9 1013.6 23.3
2017-Jan-17 02:00S 22°33' E 105°07'1 0.3 1013.6 23.3
2017-Jan-17 00:00S 22°32' E 105°07'0 0.0 1013.1 23.3
2017-Jan-16 23:00S 22°32' E 105°07'3 1.7 1012.6 23.3
2017-Jan-16 21:00S 22°34' E 105°10'0 0.0 1011.6 23.3
2017-Jan-16 20:00S 22°34' E 105°10'1 0.3 1011.7 23.4
2017-Jan-16 15:00S 22°35' E 105°10'1 0.8 1012.4 23.4
2017-Jan-16 14:00S 22°36' E 105°11'0 0.0 1012.1 23.4
2017-Jan-16 13:00S 22°36' E 105°11'0 0.0 1011.8 23.4
2017-Jan-16 12:00S 22°36' E 105°11'1 0.6 1011.5 23.4
2017-Jan-16 10:00S 22°37' E 105°11'3 1.5 1010.4 23.5
2017-Jan-16 08:00S 22°40' E 105°13'3 0.4 1010.5 23.5
2017-Jan-16 00:00S 22°39' E 105°16'1 0.6 1012.2 23.4
2017-Jan-15 23:00S 22°39' E 105°15'1 0.6 1011.8 23.4
2017-Jan-15 22:00S 22°39' E 105°16'1 1.3 1011.2 23.4
2017-Jan-15 21:00S 22°40' E 105°16'0 0.0 1010.6 23.4
2017-Jan-15 20:00S 22°40' E 105°16'2 0.3 1010.5 23.4
2017-Jan-15 14:00S 22°40' E 105°18'1 0.4 1011.5 23.5
2017-Jan-15 12:00S 22°41' E 105°19'2 1.0 1010.7 23.5
2017-Jan-15 10:00S 22°42' E 105°20'1 1.3 1009.7 23.6
2017-Jan-15 09:00S 22°43' E 105°22'2 0.7 1009.8 23.6
2017-Jan-15 06:00S 22°44' E 105°23'0 0.0 1011.0 23.6
2017-Jan-15 02:00S 22°44' E 105°23'2 1.6 1012.2 23.5
2017-Jan-15 01:00S 22°46' E 105°24'0 0.0 1012.3 23.5
2017-Jan-15 00:00S 22°46' E 105°24'1 0.6 1012.2 23.5
2017-Jan-14 22:00S 22°47' E 105°24'0 0.0 1011.5 23.6
2017-Jan-14 21:00S 22°47' E 105°24'0 0.0 1011.1 23.6
2017-Jan-14 20:00S 22°47' E 105°24'1 0.6 1011.5 23.6
2017-Jan-14 18:00S 22°47' E 105°25'0 0.0 1012.2 23.6
2017-Jan-14 17:00S 22°47' E 105°25'1 0.2 1012.6 23.6
2017-Jan-14 14:00S 22°47' E 105°26'1 0.6 1012.4 23.6
2017-Jan-14 13:00S 22°47' E 105°26'0 0.0 1012.6 23.6
2017-Jan-14 12:00S 22°47' E 105°26'1 0.8 1012.2 23.7
2017-Jan-14 11:00S 22°48' E 105°27'1 0.8 1011.6 23.7
2017-Jan-14 10:00S 22°47' E 105°26'2 1.8 1010.9 23.7
2017-Jan-14 09:00S 22°48' E 105°28'1 0.6 1010.5 23.7
2017-Jan-14 07:00S 22°49' E 105°28'3 3.4 1011.3 23.7
2017-Jan-14 06:00S 22°50' E 105°32'1 0.2 1011.9 23.7
2017-Jan-14 01:00S 22°50' E 105°32'2 2.1 1013.0 23.7
2017-Jan-14 00:00S 22°52' E 105°34'0 0.0 1013.0 23.7
2017-Jan-13 23:00S 22°52' E 105°34'2 1.8 1012.9 23.7
2017-Jan-13 22:00S 22°54' E 105°34'0 0.0 1012.1 23.7
2017-Jan-13 21:00S 22°54' E 105°34'1 0.2 1011.8 23.7
2017-Jan-13 18:00S 22°54' E 105°34'0 0.0 1012.1 23.8
2017-Jan-13 15:00S 22°54' E 105°34'1 0.3 1012.3 23.8
2017-Jan-13 11:00S 22°54' E 105°35'2 1.7 1011.1 23.8
2017-Jan-13 10:00S 22°54' E 105°37'0 0.0 1010.6 23.8
2017-Jan-13 09:00S 22°54' E 105°37'8 0.8 1010.7 23.8
2017-Jan-12 22:00S 22°56' E 105°46'1 1.3 1011.6 23.8
2017-Jan-12 21:00S 22°56' E 105°47'3 0.4 1011.4 23.8
2017-Jan-12 14:00S 22°55' E 105°50'1 0.8 1011.5 24.0
2017-Jan-12 13:00S 22°55' E 105°50'2 0.9 1011.1 24.0
2017-Jan-12 11:00S 22°54' E 105°52'1 1.2 1010.3 24.0
2017-Jan-12 10:00S 22°53' E 105°52'2 2.1 1009.8 24.0
2017-Jan-12 09:00S 22°51' E 105°53'0 0.0 1009.6 24.0
2017-Jan-12 07:00S 22°51' E 105°53'3 3.3 1010.1 24.1
2017-Jan-12 06:00S 22°49' E 105°56'1 0.3 1010.7 24.0
2017-Jan-12 02:00S 22°49' E 105°57'1 0.6 1011.3 24.0
2017-Jan-12 00:00S 22°49' E 105°58'2 1.6 1010.9 24.0
2017-Jan-11 23:00S 22°48' E 105°59'0 0.0 1010.7 24.0
2017-Jan-11 22:00S 22°48' E 105°59'2 0.6 1010.4 24.0
2017-Jan-11 18:00S 22°46' E 106°00'1 0.4 1010.7 24.1
2017-Jan-11 15:00S 22°45' E 106°01'0 0.0 1011.0 24.1
2017-Jan-11 14:00S 22°45' E 106°01'2 0.6 1010.7 24.1
2017-Jan-11 11:00S 22°43' E 106°01'2 0.9 1008.4 24.2
2017-Jan-11 09:00S 22°41' E 106°01'2 0.9 1008.0 24.3
2017-Jan-11 07:00S 22°40' E 106°01'4 0.9 1009.1 24.3
2017-Jan-11 02:00S 22°35' E 106°02'1 0.4 1010.8 24.1
2017-Jan-11 00:00S 22°35' E 106°02'3 3.0 1010.7 24.1
2017-Jan-10 23:00S 22°32' E 106°02'0 0.0 1010.1 24.1
2017-Jan-10 22:00S 22°32' E 106°02'1 0.6 1010.0 24.1
2017-Jan-10 21:00S 22°32' E 106°01'1 0.4 1010.0 24.1
2017-Jan-10 19:00S 22°31' E 106°01'0 0.0 1010.0 24.1
2017-Jan-10 18:00S 22°31' E 106°01'2 1.2 1009.9 24.1
2017-Jan-10 16:00S 22°29' E 106°01'4 1.0 1010.6 24.1
2017-Jan-10 12:00S 22°25' E 105°59'4 1.2 1009.5 24.2
2017-Jan-10 09:00S 22°22' E 105°56'0 0.0 1008.3 24.2
2017-Jan-10 08:00S 22°22' E 105°56'6 1.2 1008.7 24.2
2017-Jan-10 03:00S 22°16' E 105°56'4 1.2 1010.4 24.0
2017-Jan-10 00:00S 22°13' E 105°55'1 0.6 1010.5 24.0
2017-Jan-09 23:00S 22°13' E 105°55'3 1.5 1009.8 24.0
2017-Jan-09 21:00S 22°10' E 105°55'0 0.0 1009.0 24.0
2017-Jan-09 20:00S 22°10' E 105°55'4 0.7 1008.8 24.0
2017-Jan-09 14:00S 22°06' E 105°52'3 1.1 1010.5 24.1
2017-Jan-09 11:00S 22°04' E 105°50'9 9.3 1009.0 24.1
2017-Jan-09 10:00S 21°56' E 105°44'0 0.0 1008.3 24.1
2017-Jan-09 09:00S 21°56' E 105°44'5 0.5 1007.7 24.1
2017-Jan-08 23:00S 21°50' E 105°44'1 0.6 1009.6 23.8
2017-Jan-08 22:00S 21°50' E 105°44'3 2.6 1009.1 23.8
2017-Jan-08 21:00S 21°47' E 105°43'0 0.0 1008.5 23.8
2017-Jan-08 20:00S 21°47' E 105°43'0 0.0 1008.2 23.8
2017-Jan-08 15:00S 21°47' E 105°43'   1009.5 23.8

Dump ship's entire track history